createdAt,value
2023-03-25T00:00:17.581Z,37.54
2023-03-25T00:03:04.609Z,37.94
2023-03-25T00:05:50.519Z,37.73
2023-03-25T00:08:37.523Z,37.72
2023-03-25T00:11:23.689Z,37.54
2023-03-25T00:14:12.305Z,37.82
2023-03-25T00:16:58.979Z,38.15
2023-03-25T00:19:45.065Z,38.28
2023-03-25T00:22:30.978Z,38.51
2023-03-25T00:25:19.214Z,38.27
2023-03-25T00:28:05.437Z,38.35
2023-03-25T00:30:53.545Z,38.68
2023-03-25T00:33:41.849Z,38.74
2023-03-25T00:36:27.684Z,38.20
2023-03-25T00:39:13.786Z,38.59
2023-03-25T00:42:02.031Z,38.48
2023-03-25T00:44:50.795Z,38.82
2023-03-25T00:47:36.969Z,38.63
2023-03-25T00:50:42.076Z,40.11
2023-03-25T00:53:28.109Z,39.06
2023-03-25T00:56:14.526Z,39.02
2023-03-25T00:59:00.436Z,39.36
2023-03-25T01:01:48.882Z,39.43
2023-03-25T01:04:35.475Z,39.06
2023-03-25T01:07:24.390Z,39.41
2023-03-25T01:10:11.696Z,39.17
2023-03-25T01:12:57.787Z,39.21
2023-03-25T01:15:43.500Z,39.32
2023-03-25T01:18:29.460Z,39.31
2023-03-25T01:21:15.905Z,39.31
2023-03-25T01:24:02.382Z,39.34
2023-03-25T01:26:48.599Z,39.43
2023-03-25T01:29:34.244Z,39.69
2023-03-25T01:32:19.825Z,39.51
2023-03-25T01:35:06.496Z,40.07
2023-03-25T01:37:54.779Z,39.79
2023-03-25T01:40:40.876Z,40.13
2023-03-25T01:43:27.081Z,40.29
2023-03-25T01:46:17.303Z,40.54
2023-03-25T01:49:08.400Z,40.47
2023-03-25T01:51:58.652Z,40.07
2023-03-25T01:54:45.787Z,40.29
2023-03-25T01:57:32.477Z,40.04
2023-03-25T02:00:27.383Z,40.52
2023-03-25T02:03:21.773Z,40.31
2023-03-25T02:06:16.223Z,40.84
2023-03-25T02:09:05.279Z,40.36
2023-03-25T02:11:54.844Z,41.10
2023-03-25T02:14:41.356Z,40.99
2023-03-25T02:18:01.484Z,42.11
2023-03-25T02:21:03.967Z,41.82
2023-03-25T02:23:58.417Z,40.62
2023-03-25T02:27:27.671Z,41.81
2023-03-25T02:30:38.958Z,42.46
2023-03-25T02:33:41.623Z,41.91
2023-03-25T02:36:34.650Z,41.11
2023-03-25T02:39:49.595Z,41.61
2023-03-25T02:42:46.013Z,41.06
2023-03-25T02:45:34.284Z,41.14
2023-03-25T02:48:33.340Z,41.37
2023-03-25T02:51:24.792Z,41.88
2023-03-25T02:54:13.342Z,41.02
2023-03-25T02:57:00.714Z,40.81
2023-03-25T02:59:49.160Z,41.51
2023-03-25T03:02:35.229Z,41.16
2023-03-25T03:05:24.533Z,41.58
2023-03-25T03:08:29.630Z,41.16
2023-03-25T03:11:17.650Z,41.43
2023-03-25T03:14:30.991Z,44.65
2023-03-25T03:17:51.218Z,42.04
2023-03-25T03:21:08.449Z,41.09
2023-03-25T03:23:57.714Z,42.21
2023-03-25T03:27:00.725Z,42.97
2023-03-25T03:29:49.152Z,42.11
2023-03-25T03:33:04.460Z,41.95
2023-03-25T03:35:57.743Z,42.21
2023-03-25T03:38:48.110Z,42.37
2023-03-25T03:41:37.985Z,42.36
2023-03-25T03:44:29.952Z,42.34
2023-03-25T03:47:19.906Z,42.49
2023-03-25T03:50:09.446Z,42.76
2023-03-25T03:53:11.107Z,42.16
2023-03-25T03:56:09.580Z,42.98
2023-03-25T03:58:59.510Z,43.09
2023-03-25T04:01:48.071Z,42.33
2023-03-25T04:04:35.020Z,42.70
2023-03-25T04:07:38.879Z,43.22
2023-03-25T04:10:40.236Z,43.35
2023-03-25T04:13:34.357Z,43.01
2023-03-25T04:16:20.364Z,43.03
2023-03-25T04:19:06.619Z,42.85
2023-03-25T04:21:52.572Z,42.88
2023-03-25T04:24:41.713Z,42.76
2023-03-25T04:27:29.824Z,43.02
2023-03-25T04:30:19.534Z,42.69
2023-03-25T04:33:06.346Z,43.14
2023-03-25T04:35:53.086Z,43.29
2023-03-25T04:38:40.758Z,42.98
2023-03-25T04:41:28.843Z,42.48
2023-03-25T04:44:14.975Z,42.91
2023-03-25T04:47:01.986Z,43.20
2023-03-25T04:49:48.145Z,42.79
2023-03-25T04:52:34.629Z,43.24
2023-03-25T04:55:21.395Z,43.03
2023-03-25T04:58:07.715Z,42.91
2023-03-25T05:00:54.103Z,42.88
2023-03-25T05:03:40.258Z,43.03
2023-03-25T05:06:26.383Z,43.31
2023-03-25T05:09:15.771Z,43.03
2023-03-25T05:12:01.811Z,43.48
2023-03-25T05:14:47.583Z,43.58
2023-03-25T05:17:33.365Z,43.57
2023-03-25T05:20:19.118Z,43.33
2023-03-25T05:23:05.613Z,43.80
2023-03-25T05:25:51.828Z,43.73
2023-03-25T05:28:38.514Z,43.32
2023-03-25T05:31:24.502Z,43.17
2023-03-25T05:34:10.174Z,43.81
2023-03-25T05:36:58.198Z,43.31
2023-03-25T05:39:45.721Z,43.79
2023-03-25T05:42:33.251Z,43.36
2023-03-25T05:45:19.250Z,43.15
2023-03-25T05:48:05.445Z,43.73
2023-03-25T05:50:51.222Z,43.52
2023-03-25T05:53:37.686Z,43.70
2023-03-25T05:56:24.405Z,43.92
2023-03-25T05:59:10.701Z,43.25
2023-03-25T06:01:56.558Z,43.56
2023-03-25T06:04:42.902Z,43.82
2023-03-25T06:07:28.488Z,43.55
2023-03-25T06:10:18.058Z,43.91
2023-03-25T06:13:03.962Z,43.92
2023-03-25T06:15:49.890Z,43.74
2023-03-25T06:18:37.027Z,43.98
2023-03-25T06:21:23.979Z,43.73
2023-03-25T06:24:09.710Z,43.93
2023-03-25T06:26:55.374Z,43.57
2023-03-25T06:29:43.801Z,43.66
2023-03-25T06:32:30.964Z,43.78
2023-03-25T06:35:19.860Z,43.29
2023-03-25T06:38:05.808Z,43.53
2023-03-25T06:41:07.958Z,43.63
2023-03-25T06:43:53.854Z,43.73
2023-03-25T06:47:02.522Z,43.63
2023-03-25T06:50:09.002Z,43.88
2023-03-25T06:52:54.601Z,43.53
2023-03-25T06:55:41.350Z,43.41
2023-03-25T06:58:34.834Z,43.29
2023-03-25T07:01:21.923Z,43.42
2023-03-25T07:04:07.520Z,43.19
2023-03-25T07:06:54.669Z,43.43
2023-03-25T07:09:41.704Z,43.58
2023-03-25T07:12:27.388Z,43.42
2023-03-25T07:15:13.203Z,43.41
2023-03-25T07:18:01.270Z,43.23
2023-03-25T07:20:46.957Z,42.87
2023-03-25T07:23:32.683Z,42.99
2023-03-25T07:26:18.557Z,42.93
2023-03-25T07:29:04.405Z,43.04
2023-03-25T07:31:50.121Z,42.76
2023-03-25T07:34:36.244Z,42.80
2023-03-25T07:37:22.131Z,42.75
2023-03-25T07:40:08.479Z,42.80
2023-03-25T07:42:54.319Z,42.52
2023-03-25T07:45:43.731Z,42.76
2023-03-25T07:48:30.479Z,42.65
2023-03-25T07:51:16.453Z,42.57
2023-03-25T07:54:05.513Z,42.68
2023-03-25T07:56:52.931Z,42.58
2023-03-25T07:59:39.416Z,42.50
2023-03-25T08:02:25.332Z,42.66
2023-03-25T08:05:11.049Z,42.54
2023-03-25T08:08:00.355Z,42.60
2023-03-25T08:10:48.197Z,42.62
2023-03-25T08:13:34.113Z,42.39
2023-03-25T08:16:19.678Z,42.65
2023-03-25T08:19:05.371Z,42.63
2023-03-25T08:22:03.627Z,42.94
2023-03-25T08:24:50.436Z,42.65
2023-03-25T08:27:37.051Z,42.81
2023-03-25T08:30:26.189Z,42.20
2023-03-25T08:33:11.937Z,42.43
2023-03-25T08:35:57.988Z,42.23
2023-03-25T08:38:43.714Z,42.30
2023-03-25T08:41:29.366Z,42.01
2023-03-25T08:44:15.474Z,42.06
2023-03-25T08:47:01.575Z,41.93
2023-03-25T08:49:47.402Z,41.61
2023-03-25T08:52:33.055Z,41.76
2023-03-25T08:55:18.721Z,41.67
2023-03-25T08:58:06.367Z,41.79
2023-03-25T09:00:55.736Z,41.55
2023-03-25T09:03:42.287Z,41.41
2023-03-25T09:06:28.174Z,41.14
2023-03-25T09:09:13.751Z,40.99
2023-03-25T09:11:59.722Z,40.84
2023-03-25T09:14:45.944Z,40.70
2023-03-25T09:17:31.974Z,40.48
2023-03-25T09:20:18.769Z,40.25
2023-03-25T09:23:04.518Z,39.93
2023-03-25T09:25:50.389Z,39.95
2023-03-25T09:28:36.402Z,39.89
2023-03-25T09:31:23.422Z,39.60
2023-03-25T09:34:09.368Z,39.22
2023-03-25T09:36:55.818Z,39.30
2023-03-25T09:39:41.680Z,39.11
2023-03-25T09:42:41.629Z,38.83
2023-03-25T09:45:37.265Z,38.66
2023-03-25T09:48:40.531Z,37.71
2023-03-25T09:51:36.616Z,37.77
2023-03-25T09:54:28.856Z,37.72
2023-03-25T09:57:18.667Z,37.78
2023-03-25T10:00:07.119Z,37.68
2023-03-25T10:03:33.108Z,36.50
2023-03-25T10:06:20.903Z,37.15
2023-03-25T10:09:12.935Z,37.28
2023-03-25T10:12:23.557Z,37.11
2023-03-25T10:15:18.213Z,35.66
2023-03-25T10:18:33.997Z,36.22
2023-03-25T10:21:50.339Z,35.81
2023-03-25T10:24:51.990Z,35.61
2023-03-25T10:27:49.628Z,36.37
2023-03-25T10:30:41.794Z,36.38
2023-03-25T10:33:42.434Z,34.40
2023-03-25T10:36:38.318Z,35.83
2023-03-25T10:39:25.572Z,35.70
2023-03-25T10:42:30.666Z,34.50
2023-03-25T10:45:18.297Z,35.36
2023-03-25T10:48:14.883Z,35.00
2023-03-25T10:51:08.489Z,35.03
2023-03-25T10:53:55.430Z,34.97
2023-03-25T10:56:45.704Z,34.65
2023-03-25T10:59:38.235Z,34.20
2023-03-25T11:02:26.109Z,34.30
2023-03-25T11:05:15.946Z,34.02
2023-03-25T11:08:14.965Z,34.04
2023-03-25T11:11:08.554Z,33.82
2023-03-25T11:13:57.500Z,33.23
2023-03-25T11:16:47.468Z,33.45
2023-03-25T11:19:39.773Z,32.63
2023-03-25T11:22:30.940Z,32.81
2023-03-25T11:25:25.930Z,30.88
2023-03-25T11:28:16.523Z,32.64
2023-03-25T11:31:16.667Z,32.36
2023-03-25T11:34:21.827Z,31.02
2023-03-25T11:37:19.002Z,32.08
2023-03-25T11:40:06.785Z,32.57
2023-03-25T11:43:00.473Z,32.31
2023-03-25T11:45:46.796Z,32.62
2023-03-25T11:48:37.336Z,32.33
2023-03-25T11:51:26.122Z,32.49
2023-03-25T11:54:14.763Z,32.42
2023-03-25T11:57:04.354Z,32.53
2023-03-25T12:00:01.118Z,32.39
2023-03-25T12:02:47.171Z,32.50
2023-03-25T12:05:34.120Z,32.50
2023-03-25T12:08:22.763Z,32.72
2023-03-25T12:11:16.925Z,32.72
2023-03-25T12:14:10.220Z,32.59
2023-03-25T12:17:18.235Z,31.35
2023-03-25T12:20:22.605Z,31.91
2023-03-25T12:23:28.894Z,28.91
2023-03-25T12:26:19.587Z,28.12
2023-03-25T12:29:32.685Z,29.40
2023-03-25T12:32:53.635Z,27.64
2023-03-25T12:35:49.975Z,28.08
2023-03-25T12:39:00.346Z,28.28
2023-03-25T12:42:13.309Z,26.22
2023-03-25T12:45:10.139Z,27.85
2023-03-25T12:48:09.835Z,26.75
2023-03-25T12:51:01.877Z,26.05
2023-03-25T12:54:17.186Z,25.88
2023-03-25T12:57:06.170Z,27.06
2023-03-25T13:00:09.340Z,26.45
2023-03-25T13:03:40.317Z,25.30
2023-03-25T13:06:43.924Z,26.01
2023-03-25T13:09:30.109Z,26.95
2023-03-25T13:12:49.745Z,26.08
2023-03-25T13:15:35.694Z,26.97
2023-03-25T13:18:26.348Z,26.63
2023-03-25T13:21:33.229Z,25.40
2023-03-25T13:24:25.142Z,26.00
2023-03-25T13:27:12.992Z,25.86
2023-03-25T13:30:00.414Z,25.81
2023-03-25T13:32:50.629Z,25.69
2023-03-25T13:35:42.008Z,25.89
2023-03-25T13:38:58.264Z,24.56
2023-03-25T13:41:51.795Z,25.27
2023-03-25T13:44:40.320Z,25.01
2023-03-25T13:47:37.582Z,23.05
2023-03-25T13:50:29.119Z,23.62
2023-03-25T13:53:38.219Z,20.28
2023-03-25T13:56:27.351Z,22.54
2023-03-25T13:59:28.268Z,22.72
2023-03-25T14:02:52.431Z,20.45
2023-03-25T14:06:07.956Z,19.09
2023-03-25T14:09:18.104Z,20.66
2023-03-25T14:12:09.801Z,20.91
2023-03-25T14:15:06.763Z,20.06
2023-03-25T14:17:54.506Z,21.24
2023-03-25T14:20:41.845Z,21.30
2023-03-25T14:23:31.303Z,19.72
2023-03-25T14:26:18.127Z,20.73
2023-03-25T14:29:10.045Z,20.27
2023-03-25T14:32:02.102Z,21.68
2023-03-25T14:34:51.900Z,22.17
2023-03-25T14:37:41.963Z,21.71
2023-03-25T14:40:50.812Z,19.95
2023-03-25T14:43:53.984Z,20.87
2023-03-25T14:46:46.434Z,20.77
2023-03-25T14:50:04.999Z,19.79
2023-03-25T14:52:56.445Z,21.47
2023-03-25T14:55:45.266Z,21.55
2023-03-25T14:58:31.853Z,21.60
2023-03-25T15:01:20.835Z,22.21
2023-03-25T15:04:19.320Z,22.50
2023-03-25T15:07:11.651Z,22.98
2023-03-25T15:09:59.242Z,23.15
2023-03-25T15:12:53.093Z,23.51
2023-03-25T15:15:45.129Z,23.34
2023-03-25T15:18:37.587Z,23.95
2023-03-25T15:21:24.682Z,24.16
2023-03-25T15:24:12.150Z,24.55
2023-03-25T15:27:04.447Z,24.66
2023-03-25T15:30:12.443Z,24.80
2023-03-25T15:32:58.543Z,25.10
2023-03-25T15:36:16.021Z,25.30
2023-03-25T15:39:40.534Z,25.55
2023-03-25T15:42:45.354Z,25.66
2023-03-25T15:45:34.194Z,25.84
2023-03-25T15:48:27.566Z,25.63
2023-03-25T15:51:16.668Z,25.71
2023-03-25T15:54:17.901Z,26.02
2023-03-25T15:57:14.399Z,26.23
2023-03-25T16:00:13.701Z,26.45
2023-03-25T16:03:08.629Z,26.33
2023-03-25T16:05:59.659Z,26.50
2023-03-25T16:08:47.330Z,26.31
2023-03-25T16:11:33.141Z,26.52
2023-03-25T16:14:22.364Z,26.52
2023-03-25T16:17:09.014Z,26.43
2023-03-25T16:19:56.471Z,26.68
2023-03-25T16:22:44.045Z,26.61
2023-03-25T16:25:38.436Z,27.06
2023-03-25T16:28:44.966Z,28.57
2023-03-25T16:31:34.947Z,27.50
2023-03-25T16:34:21.517Z,27.39
2023-03-25T16:37:07.976Z,27.80
2023-03-25T16:39:55.693Z,28.08
2023-03-25T16:42:41.511Z,28.09
2023-03-25T16:45:27.196Z,28.57
2023-03-25T16:48:27.106Z,30.56
2023-03-25T16:51:22.041Z,28.84
2023-03-25T16:54:13.311Z,29.10
2023-03-25T16:57:01.077Z,29.15
2023-03-25T16:59:47.920Z,29.21
2023-03-25T17:02:42.969Z,29.62
2023-03-25T17:05:30.048Z,29.45
2023-03-25T17:08:18.402Z,29.76
2023-03-25T17:11:04.409Z,29.79
2023-03-25T17:13:52.733Z,29.94
2023-03-25T17:16:38.842Z,30.07
2023-03-25T17:19:26.794Z,30.27
2023-03-25T17:22:16.620Z,30.64
2023-03-25T17:25:27.510Z,31.12
2023-03-25T17:28:58.172Z,32.49
2023-03-25T17:31:43.949Z,30.58
2023-03-25T17:34:32.234Z,31.00
2023-03-25T17:37:19.181Z,31.33
2023-03-25T17:40:11.676Z,31.39
2023-03-25T17:42:58.859Z,31.35
2023-03-25T17:45:47.057Z,31.45
2023-03-25T17:48:33.309Z,31.48
2023-03-25T17:51:20.760Z,31.68
2023-03-25T17:54:06.719Z,31.53
2023-03-25T17:56:52.908Z,31.96
2023-03-25T17:59:38.757Z,31.89
2023-03-25T18:02:24.560Z,32.04
2023-03-25T18:05:11.055Z,32.22
2023-03-25T18:07:58.370Z,32.27
2023-03-25T18:10:44.278Z,32.49
2023-03-25T18:13:30.036Z,32.39
2023-03-25T18:16:16.816Z,32.78
2023-03-25T18:19:02.895Z,32.51
2023-03-25T18:21:48.948Z,32.61
2023-03-25T18:24:35.068Z,33.06
2023-03-25T18:27:25.579Z,33.13
2023-03-25T18:30:39.168Z,33.87
2023-03-25T18:33:25.601Z,33.25
2023-03-25T18:36:11.968Z,33.29
2023-03-25T18:38:57.869Z,33.38
2023-03-25T18:41:44.172Z,33.34
2023-03-25T18:44:30.920Z,33.53
2023-03-25T18:47:17.098Z,33.52
2023-03-25T18:50:13.109Z,34.55
2023-03-25T18:52:59.737Z,33.88
2023-03-25T18:55:46.586Z,34.12
2023-03-25T18:58:34.022Z,34.42
2023-03-25T19:01:21.924Z,34.27
2023-03-25T19:04:09.286Z,34.61
2023-03-25T19:06:55.883Z,34.48
2023-03-25T19:09:41.655Z,34.61
2023-03-25T19:12:27.366Z,34.99
2023-03-25T19:15:15.758Z,35.16
2023-03-25T19:18:02.008Z,35.36
2023-03-25T19:20:49.686Z,35.29
2023-03-25T19:23:36.446Z,35.14
2023-03-25T19:26:22.229Z,35.40
2023-03-25T19:29:08.780Z,35.35
2023-03-25T19:31:54.939Z,36.11
2023-03-25T19:34:40.430Z,35.86
2023-03-25T19:37:30.510Z,35.95
2023-03-25T19:40:18.916Z,36.12
2023-03-25T19:43:07.864Z,35.97
2023-03-25T19:45:57.753Z,36.38
2023-03-25T19:48:43.873Z,36.51
2023-03-25T19:51:29.814Z,36.75
2023-03-25T19:54:15.529Z,36.62
2023-03-25T19:57:01.577Z,36.90
2023-03-25T19:59:48.279Z,36.69
2023-03-25T20:02:34.353Z,37.12
2023-03-25T20:05:21.803Z,37.16
2023-03-25T20:08:09.503Z,37.21
2023-03-25T20:10:55.352Z,37.11
2023-03-25T20:13:41.309Z,37.00
2023-03-25T20:16:28.405Z,37.43
2023-03-25T20:19:14.230Z,37.02
2023-03-25T20:22:00.621Z,37.09
2023-03-25T20:24:46.491Z,37.23
2023-03-25T20:27:32.522Z,37.53
2023-03-25T20:30:19.675Z,37.59
2023-03-25T20:33:05.653Z,37.43
2023-03-25T20:35:52.050Z,37.50
2023-03-25T20:38:42.006Z,37.85
2023-03-25T20:41:36.885Z,37.72
2023-03-25T20:44:22.949Z,37.71
2023-03-25T20:47:09.459Z,37.99
2023-03-25T20:49:56.191Z,37.99
2023-03-25T20:52:43.836Z,38.17
2023-03-25T20:55:29.562Z,38.45
2023-03-25T20:58:15.977Z,38.50
2023-03-25T21:01:02.773Z,38.95
2023-03-25T21:03:50.395Z,39.28
2023-03-25T21:06:35.986Z,39.34
2023-03-25T21:09:22.008Z,38.69
2023-03-25T21:12:08.211Z,38.85
2023-03-25T21:14:54.523Z,39.00
2023-03-25T21:17:40.947Z,38.74
2023-03-25T21:20:28.913Z,39.16
2023-03-25T21:23:14.777Z,39.02
2023-03-25T21:26:09.308Z,39.01
2023-03-25T21:28:56.909Z,39.05
2023-03-25T21:31:42.898Z,39.41
2023-03-25T21:34:30.299Z,39.53
2023-03-25T21:37:16.476Z,39.62
2023-03-25T21:40:02.763Z,39.74
2023-03-25T21:42:48.849Z,39.94
2023-03-25T21:45:35.404Z,40.00
2023-03-25T21:48:22.641Z,40.08
2023-03-25T21:51:14.429Z,40.13
2023-03-25T21:54:00.688Z,40.15
2023-03-25T21:56:51.949Z,40.80
2023-03-25T21:59:37.660Z,40.96
2023-03-25T22:02:25.645Z,41.12
2023-03-25T22:05:12.913Z,41.32
2023-03-25T22:07:59.102Z,41.84
2023-03-25T22:10:45.088Z,41.93
2023-03-25T22:13:30.818Z,42.18
2023-03-25T22:16:18.133Z,42.29
2023-03-25T22:19:04.645Z,42.44
2023-03-25T22:21:50.738Z,42.42
2023-03-25T22:24:37.063Z,42.08
2023-03-25T22:27:23.001Z,42.29
2023-03-25T22:30:09.408Z,42.80
2023-03-25T22:32:54.962Z,42.70
2023-03-25T22:35:41.119Z,42.62
2023-03-25T22:38:26.789Z,43.03
2023-03-25T22:41:15.443Z,42.85
2023-03-25T22:44:01.447Z,42.93
2023-03-25T22:46:49.023Z,43.15
2023-03-25T22:49:35.054Z,43.11
2023-03-25T22:52:21.025Z,43.32
2023-03-25T22:55:07.762Z,43.40
2023-03-25T22:57:53.914Z,43.41
2023-03-25T23:00:42.156Z,43.46
2023-03-25T23:03:36.148Z,43.48
2023-03-25T23:06:23.519Z,43.68
2023-03-25T23:09:10.028Z,43.69
2023-03-25T23:11:57.029Z,43.55
2023-03-25T23:14:48.198Z,43.82
2023-03-25T23:17:35.283Z,43.82
2023-03-25T23:20:22.343Z,43.66
2023-03-25T23:23:08.057Z,44.01
2023-03-25T23:26:27.594Z,45.90
2023-03-25T23:29:14.064Z,43.90
2023-03-25T23:32:00.472Z,44.07
2023-03-25T23:34:46.378Z,44.14
2023-03-25T23:37:34.003Z,44.31
2023-03-25T23:40:22.844Z,44.12
2023-03-25T23:43:08.826Z,44.48
2023-03-25T23:45:54.753Z,44.41
2023-03-25T23:48:41.142Z,44.78
2023-03-25T23:51:27.239Z,44.97
2023-03-25T23:54:15.393Z,44.55
2023-03-25T23:57:02.308Z,45.03
2023-03-25T23:59:48.198Z,45.46
